sensor_id;sensor_type;location;lat;lon;timestamp;P1;durP1;ratioP1;P2;durP2;ratioP2
10242;SDS011;5166;48.292;16.418;2022-08-20T00:02:02;19.37;;;18.27;;
10242;SDS011;5166;48.292;16.418;2022-08-20T00:04:05;20.70;;;19.40;;
10242;SDS011;5166;48.292;16.418;2022-08-20T00:06:09;22.17;;;20.77;;
10242;SDS011;5166;48.292;16.418;2022-08-20T00:08:11;30.80;;;28.40;;
10242;SDS011;5166;48.292;16.418;2022-08-20T00:10:13;23.50;;;22.10;;
10242;SDS011;5166;48.292;16.418;2022-08-20T00:12:16;21.93;;;20.53;;
10242;SDS011;5166;48.292;16.418;2022-08-20T00:14:19;22.07;;;20.67;;
10242;SDS011;5166;48.292;16.418;2022-08-20T00:16:23;22.33;;;20.93;;
10242;SDS011;5166;48.292;16.418;2022-08-20T00:18:25;22.10;;;20.80;;
10242;SDS011;5166;48.292;16.418;2022-08-20T00:20:30;20.97;;;19.67;;
10242;SDS011;5166;48.292;16.418;2022-08-20T00:22:31;20.87;;;19.67;;
10242;SDS011;5166;48.292;16.418;2022-08-20T00:24:34;23.00;;;21.53;;
10242;SDS011;5166;48.292;16.418;2022-08-20T00:26:37;23.37;;;21.97;;
10242;SDS011;5166;48.292;16.418;2022-08-20T00:28:39;21.13;;;19.90;;
10242;SDS011;5166;48.292;16.418;2022-08-20T00:30:43;22.17;;;20.67;;
10242;SDS011;5166;48.292;16.418;2022-08-20T00:32:46;19.10;;;18.00;;
10242;SDS011;5166;48.292;16.418;2022-08-20T00:34:48;22.07;;;20.77;;
10242;SDS011;5166;48.292;16.418;2022-08-20T00:36:51;20.50;;;19.30;;
10242;SDS011;5166;48.292;16.418;2022-08-20T00:38:54;23.20;;;21.80;;
10242;SDS011;5166;48.292;16.418;2022-08-20T00:40:57;22.70;;;21.40;;
10242;SDS011;5166;48.292;16.418;2022-08-20T00:43:00;19.17;;;18.07;;
10242;SDS011;5166;48.292;16.418;2022-08-20T00:45:02;23.47;;;22.10;;
10242;SDS011;5166;48.292;16.418;2022-08-20T00:47:05;21.10;;;19.90;;
10242;SDS011;5166;48.292;16.418;2022-08-20T00:49:08;21.83;;;20.60;;
10242;SDS011;5166;48.292;16.418;2022-08-20T00:51:13;21.53;;;20.33;;
10242;SDS011;5166;48.292;16.418;2022-08-20T00:53:14;22.63;;;21.33;;
10242;SDS011;5166;48.292;16.418;2022-08-20T00:55:17;24.07;;;22.67;;
10242;SDS011;5166;48.292;16.418;2022-08-20T00:57:20;23.75;;;22.45;;
10242;SDS011;5166;48.292;16.418;2022-08-20T00:59:23;23.67;;;22.37;;
10242;SDS011;5166;48.292;16.418;2022-08-20T01:01:25;22.37;;;21.13;;
10242;SDS011;5166;48.292;16.418;2022-08-20T01:03:28;23.40;;;22.00;;
10242;SDS011;5166;48.292;16.418;2022-08-20T01:05:31;21.57;;;20.37;;
10242;SDS011;5166;48.292;16.418;2022-08-20T01:07:34;24.37;;;22.97;;
10242;SDS011;5166;48.292;16.418;2022-08-20T01:09:36;23.07;;;21.77;;
10242;SDS011;5166;48.292;16.418;2022-08-20T01:11:39;19.33;;;18.20;;
10242;SDS011;5166;48.292;16.418;2022-08-20T01:13:42;20.07;;;18.90;;
10242;SDS011;5166;48.292;16.418;2022-08-20T01:15:46;21.43;;;20.23;;
10242;SDS011;5166;48.292;16.418;2022-08-20T01:17:49;20.73;;;19.63;;
10242;SDS011;5166;48.292;16.418;2022-08-20T01:19:52;21.73;;;20.40;;
10242;SDS011;5166;48.292;16.418;2022-08-20T01:21:54;22.00;;;20.80;;
10242;SDS011;5166;48.292;16.418;2022-08-20T01:23:58;21.37;;;20.07;;
10242;SDS011;5166;48.292;16.418;2022-08-20T01:26:02;22.37;;;21.07;;
10242;SDS011;5166;48.292;16.418;2022-08-20T01:28:04;20.77;;;19.50;;
10242;SDS011;5166;48.292;16.418;2022-08-20T01:30:07;19.30;;;18.20;;
10242;SDS011;5166;48.292;16.418;2022-08-20T01:32:10;21.03;;;19.93;;
10242;SDS011;5166;48.292;16.418;2022-08-20T01:34:14;19.27;;;18.08;;
10242;SDS011;5166;48.292;16.418;2022-08-20T01:36:16;20.15;;;19.05;;
10242;SDS011;5166;48.292;16.418;2022-08-20T01:38:19;21.77;;;20.60;;
10242;SDS011;5166;48.292;16.418;2022-08-20T01:40:26;20.57;;;19.47;;
10242;SDS011;5166;48.292;16.418;2022-08-20T01:42:29;20.97;;;19.87;;
10242;SDS011;5166;48.292;16.418;2022-08-20T01:44:32;20.07;;;18.97;;
10242;SDS011;5166;48.292;16.418;2022-08-20T01:46:36;23.53;;;22.33;;
10242;SDS011;5166;48.292;16.418;2022-08-20T01:48:38;20.13;;;18.97;;
10242;SDS011;5166;48.292;16.418;2022-08-20T01:50:40;19.30;;;18.23;;
10242;SDS011;5166;48.292;16.418;2022-08-20T01:52:45;21.20;;;20.10;;
10242;SDS011;5166;48.292;16.418;2022-08-20T01:54:47;18.70;;;17.70;;
10242;SDS011;5166;48.292;16.418;2022-08-20T01:56:51;21.10;;;20.00;;
10242;SDS011;5166;48.292;16.418;2022-08-20T01:58:55;21.37;;;20.17;;
10242;SDS011;5166;48.292;16.418;2022-08-20T02:00:57;20.55;;;19.45;;
10242;SDS011;5166;48.292;16.418;2022-08-20T02:02:59;20.63;;;19.50;;
10242;SDS011;5166;48.292;16.418;2022-08-20T02:05:03;20.10;;;18.90;;
10242;SDS011;5166;48.292;16.418;2022-08-20T02:07:07;19.50;;;18.50;;
10242;SDS011;5166;48.292;16.418;2022-08-20T02:09:09;18.33;;;17.33;;
10242;SDS011;5166;48.292;16.418;2022-08-20T02:11:12;18.93;;;18.00;;
10242;SDS011;5166;48.292;16.418;2022-08-20T02:13:15;21.10;;;20.00;;
10242;SDS011;5166;48.292;16.418;2022-08-20T02:15:17;20.17;;;19.17;;
10242;SDS011;5166;48.292;16.418;2022-08-20T02:17:21;19.80;;;18.70;;
10242;SDS011;5166;48.292;16.418;2022-08-20T02:19:23;19.30;;;18.30;;
10242;SDS011;5166;48.292;16.418;2022-08-20T02:21:26;20.23;;;19.13;;
10242;SDS011;5166;48.292;16.418;2022-08-20T02:23:28;19.97;;;18.87;;
10242;SDS011;5166;48.292;16.418;2022-08-20T02:25:32;20.75;;;19.60;;
10242;SDS011;5166;48.292;16.418;2022-08-20T02:27:34;15.10;;;14.30;;
10242;SDS011;5166;48.292;16.418;2022-08-20T02:29:37;17.43;;;16.53;;
10242;SDS011;5166;48.292;16.418;2022-08-20T02:31:40;18.83;;;17.83;;
10242;SDS011;5166;48.292;16.418;2022-08-20T02:33:42;19.63;;;18.63;;
10242;SDS011;5166;48.292;16.418;2022-08-20T02:35:45;18.97;;;17.97;;
10242;SDS011;5166;48.292;16.418;2022-08-20T02:37:48;18.40;;;17.47;;
10242;SDS011;5166;48.292;16.418;2022-08-20T02:39:50;16.97;;;16.07;;
10242;SDS011;5166;48.292;16.418;2022-08-20T02:41:53;18.42;;;17.42;;
10242;SDS011;5166;48.292;16.418;2022-08-20T02:43:56;18.50;;;17.47;;
10242;SDS011;5166;48.292;16.418;2022-08-20T02:45:58;17.80;;;16.85;;
10242;SDS011;5166;48.292;16.418;2022-08-20T02:48:02;19.00;;;17.90;;
10242;SDS011;5166;48.292;16.418;2022-08-20T02:50:05;18.30;;;17.20;;
10242;SDS011;5166;48.292;16.418;2022-08-20T02:52:08;17.23;;;16.43;;
10242;SDS011;5166;48.292;16.418;2022-08-20T02:54:11;18.40;;;17.50;;
10242;SDS011;5166;48.292;16.418;2022-08-20T02:56:14;14.53;;;13.80;;
10242;SDS011;5166;48.292;16.418;2022-08-20T02:58:17;16.30;;;15.50;;
10242;SDS011;5166;48.292;16.418;2022-08-20T03:00:19;16.30;;;15.50;;
10242;SDS011;5166;48.292;16.418;2022-08-20T03:02:22;16.70;;;15.70;;
10242;SDS011;5166;48.292;16.418;2022-08-20T03:04:25;16.90;;;16.10;;
10242;SDS011;5166;48.292;16.418;2022-08-20T03:06:28;18.50;;;17.50;;
10242;SDS011;5166;48.292;16.418;2022-08-20T03:08:30;16.63;;;15.83;;
10242;SDS011;5166;48.292;16.418;2022-08-20T03:10:34;15.32;;;14.62;;
10242;SDS011;5166;48.292;16.418;2022-08-20T03:12:36;18.57;;;17.57;;
10242;SDS011;5166;48.292;16.418;2022-08-20T03:14:38;18.87;;;17.87;;
10242;SDS011;5166;48.292;16.418;2022-08-20T03:16:41;19.30;;;18.30;;
10242;SDS011;5166;48.292;16.418;2022-08-20T03:18:45;17.73;;;16.83;;
10242;SDS011;5166;48.292;16.418;2022-08-20T03:20:47;16.00;;;15.20;;
10242;SDS011;5166;48.292;16.418;2022-08-20T03:22:50;16.57;;;15.57;;
10242;SDS011;5166;48.292;16.418;2022-08-20T03:24:52;19.90;;;18.75;;
10242;SDS011;5166;48.292;16.418;2022-08-20T03:26:55;19.40;;;18.50;;
10242;SDS011;5166;48.292;16.418;2022-08-20T03:28:58;18.40;;;17.50;;
10242;SDS011;5166;48.292;16.418;2022-08-20T03:31:01;20.27;;;19.17;;
10242;SDS011;5166;48.292;16.418;2022-08-20T03:33:03;18.80;;;17.80;;
10242;SDS011;5166;48.292;16.418;2022-08-20T03:35:07;17.90;;;16.93;;
10242;SDS011;5166;48.292;16.418;2022-08-20T03:37:10;16.40;;;15.60;;
10242;SDS011;5166;48.292;16.418;2022-08-20T03:39:12;18.00;;;17.10;;
10242;SDS011;5166;48.292;16.418;2022-08-20T03:41:15;15.50;;;14.63;;
10242;SDS011;5166;48.292;16.418;2022-08-20T03:43:18;18.93;;;18.03;;
10242;SDS011;5166;48.292;16.418;2022-08-20T03:45:21;19.80;;;18.80;;
10242;SDS011;5166;48.292;16.418;2022-08-20T03:47:24;19.80;;;18.70;;
10242;SDS011;5166;48.292;16.418;2022-08-20T03:49:27;18.47;;;17.57;;
10242;SDS011;5166;48.292;16.418;2022-08-20T03:51:30;19.12;;;18.12;;
10242;SDS011;5166;48.292;16.418;2022-08-20T03:53:32;20.70;;;19.60;;
10242;SDS011;5166;48.292;16.418;2022-08-20T03:55:35;18.00;;;17.00;;
10242;SDS011;5166;48.292;16.418;2022-08-20T03:57:43;20.63;;;19.43;;
10242;SDS011;5166;48.292;16.418;2022-08-20T03:59:46;16.47;;;15.57;;
10242;SDS011;5166;48.292;16.418;2022-08-20T04:01:49;17.30;;;16.30;;
10242;SDS011;5166;48.292;16.418;2022-08-20T04:03:52;17.87;;;16.87;;
10242;SDS011;5166;48.292;16.418;2022-08-20T04:05:55;19.07;;;18.00;;
10242;SDS011;5166;48.292;16.418;2022-08-20T04:07:58;18.83;;;17.90;;
10242;SDS011;5166;48.292;16.418;2022-08-20T04:10:03;22.25;;;21.00;;
10242;SDS011;5166;48.292;16.418;2022-08-20T04:12:04;17.20;;;16.30;;
10242;SDS011;5166;48.292;16.418;2022-08-20T04:14:07;18.87;;;17.93;;
10242;SDS011;5166;48.292;16.418;2022-08-20T04:16:10;20.00;;;18.80;;
10242;SDS011;5166;48.292;16.418;2022-08-20T04:18:13;17.20;;;16.30;;
10242;SDS011;5166;48.292;16.418;2022-08-20T04:20:16;20.90;;;19.57;;
10242;SDS011;5166;48.292;16.418;2022-08-20T04:22:18;20.05;;;19.05;;
10242;SDS011;5166;48.292;16.418;2022-08-20T04:24:21;19.40;;;18.30;;
10242;SDS011;5166;48.292;16.418;2022-08-20T04:26:24;21.65;;;20.55;;
10242;SDS011;5166;48.292;16.418;2022-08-20T04:28:27;21.00;;;19.80;;
10242;SDS011;5166;48.292;16.418;2022-08-20T04:30:30;21.48;;;20.38;;
10242;SDS011;5166;48.292;16.418;2022-08-20T04:32:33;17.15;;;16.25;;
10242;SDS011;5166;48.292;16.418;2022-08-20T04:34:35;19.20;;;18.10;;
10242;SDS011;5166;48.292;16.418;2022-08-20T04:36:39;19.52;;;18.42;;
10242;SDS011;5166;48.292;16.418;2022-08-20T04:38:42;18.77;;;17.77;;
10242;SDS011;5166;48.292;16.418;2022-08-20T04:40:45;17.30;;;16.45;;
10242;SDS011;5166;48.292;16.418;2022-08-20T04:42:54;19.83;;;18.83;;
10242;SDS011;5166;48.292;16.418;2022-08-20T04:44:56;14.87;;;14.17;;
10242;SDS011;5166;48.292;16.418;2022-08-20T04:46:59;19.57;;;18.53;;
10242;SDS011;5166;48.292;16.418;2022-08-20T04:49:02;17.50;;;16.52;;
10242;SDS011;5166;48.292;16.418;2022-08-20T04:51:05;18.83;;;17.83;;
10242;SDS011;5166;48.292;16.418;2022-08-20T04:53:08;20.90;;;19.80;;
10242;SDS011;5166;48.292;16.418;2022-08-20T04:55:10;18.02;;;16.95;;
10242;SDS011;5166;48.292;16.418;2022-08-20T04:57:13;18.60;;;17.60;;
10242;SDS011;5166;48.292;16.418;2022-08-20T04:59:16;19.90;;;18.67;;
10242;SDS011;5166;48.292;16.418;2022-08-20T05:01:19;20.83;;;19.52;;
10242;SDS011;5166;48.292;16.418;2022-08-20T05:03:22;19.50;;;18.27;;
10242;SDS011;5166;48.292;16.418;2022-08-20T05:05:25;16.62;;;15.80;;
10242;SDS011;5166;48.292;16.418;2022-08-20T05:07:27;16.70;;;15.80;;
10242;SDS011;5166;48.292;16.418;2022-08-20T05:09:30;16.80;;;15.77;;
10242;SDS011;5166;48.292;16.418;2022-08-20T05:11:33;17.02;;;16.17;;
10242;SDS011;5166;48.292;16.418;2022-08-20T05:13:36;20.27;;;19.00;;
10242;SDS011;5166;48.292;16.418;2022-08-20T05:15:39;16.60;;;15.70;;
10242;SDS011;5166;48.292;16.418;2022-08-20T05:17:42;19.20;;;18.10;;
10242;SDS011;5166;48.292;16.418;2022-08-20T05:19:44;19.45;;;18.45;;
10242;SDS011;5166;48.292;16.418;2022-08-20T05:21:47;17.40;;;16.50;;
10242;SDS011;5166;48.292;16.418;2022-08-20T05:23:51;17.83;;;16.92;;
10242;SDS011;5166;48.292;16.418;2022-08-20T05:25:55;20.02;;;18.92;;
10242;SDS011;5166;48.292;16.418;2022-08-20T05:27:57;21.08;;;19.98;;
10242;SDS011;5166;48.292;16.418;2022-08-20T05:30:00;16.80;;;15.90;;
10242;SDS011;5166;48.292;16.418;2022-08-20T05:32:03;21.73;;;20.62;;
10242;SDS011;5166;48.292;16.418;2022-08-20T05:34:10;18.20;;;17.30;;
10242;SDS011;5166;48.292;16.418;2022-08-20T05:36:09;17.52;;;16.60;;
10242;SDS011;5166;48.292;16.418;2022-08-20T05:38:13;14.40;;;13.70;;
10242;SDS011;5166;48.292;16.418;2022-08-20T05:40:15;18.10;;;17.20;;
10242;SDS011;5166;48.292;16.418;2022-08-20T05:42:17;18.62;;;17.73;;
10242;SDS011;5166;48.292;16.418;2022-08-20T05:44:20;19.30;;;18.23;;
10242;SDS011;5166;48.292;16.418;2022-08-20T05:46:23;19.20;;;18.20;;
10242;SDS011;5166;48.292;16.418;2022-08-20T05:48:26;19.20;;;18.20;;
10242;SDS011;5166;48.292;16.418;2022-08-20T05:50:29;21.45;;;20.35;;
10242;SDS011;5166;48.292;16.418;2022-08-20T05:52:32;19.67;;;18.67;;
10242;SDS011;5166;48.292;16.418;2022-08-20T05:54:35;18.23;;;17.35;;
10242;SDS011;5166;48.292;16.418;2022-08-20T05:56:38;22.17;;;21.08;;
10242;SDS011;5166;48.292;16.418;2022-08-20T05:58:41;22.48;;;21.42;;
10242;SDS011;5166;48.292;16.418;2022-08-20T06:00:44;20.77;;;19.75;;
10242;SDS011;5166;48.292;16.418;2022-08-20T06:02:46;19.20;;;18.30;;
10242;SDS011;5166;48.292;16.418;2022-08-20T06:04:55;20.05;;;18.85;;
10242;SDS011;5166;48.292;16.418;2022-08-20T06:07:00;17.58;;;16.67;;
10242;SDS011;5166;48.292;16.418;2022-08-20T06:09:02;21.60;;;20.50;;
10242;SDS011;5166;48.292;16.418;2022-08-20T06:11:05;19.95;;;18.85;;
10242;SDS011;5166;48.292;16.418;2022-08-20T06:13:07;20.60;;;19.58;;
10242;SDS011;5166;48.292;16.418;2022-08-20T06:15:10;17.75;;;16.95;;
10242;SDS011;5166;48.292;16.418;2022-08-20T06:17:14;19.42;;;18.33;;
10242;SDS011;5166;48.292;16.418;2022-08-20T06:19:15;20.50;;;19.30;;
10242;SDS011;5166;48.292;16.418;2022-08-20T06:21:18;17.73;;;16.73;;
10242;SDS011;5166;48.292;16.418;2022-08-20T06:23:21;20.08;;;18.98;;
10242;SDS011;5166;48.292;16.418;2022-08-20T06:25:24;12.88;;;12.18;;
10242;SDS011;5166;48.292;16.418;2022-08-20T06:27:27;13.50;;;12.80;;
10242;SDS011;5166;48.292;16.418;2022-08-20T06:29:30;11.88;;;11.27;;
10242;SDS011;5166;48.292;16.418;2022-08-20T06:31:32;11.25;;;10.52;;
10242;SDS011;5166;48.292;16.418;2022-08-20T06:33:35;11.07;;;10.57;;
10242;SDS011;5166;48.292;16.418;2022-08-20T06:35:38;10.40;;;9.90;;
10242;SDS011;5166;48.292;16.418;2022-08-20T06:37:41;11.60;;;11.00;;
10242;SDS011;5166;48.292;16.418;2022-08-20T06:39:44;12.50;;;11.90;;
10242;SDS011;5166;48.292;16.418;2022-08-20T06:41:47;13.27;;;12.57;;
10242;SDS011;5166;48.292;16.418;2022-08-20T06:43:50;13.27;;;12.57;;
10242;SDS011;5166;48.292;16.418;2022-08-20T06:45:53;11.62;;;11.02;;
10242;SDS011;5166;48.292;16.418;2022-08-20T06:47:56;12.85;;;12.25;;
10242;SDS011;5166;48.292;16.418;2022-08-20T06:49:59;13.15;;;12.45;;
10242;SDS011;5166;48.292;16.418;2022-08-20T06:52:02;10.23;;;9.73;;
10242;SDS011;5166;48.292;16.418;2022-08-20T06:54:05;11.52;;;11.02;;
10242;SDS011;5166;48.292;16.418;2022-08-20T06:56:10;11.07;;;10.55;;
10242;SDS011;5166;48.292;16.418;2022-08-20T06:58:11;12.02;;;11.12;;
10242;SDS011;5166;48.292;16.418;2022-08-20T07:00:18;11.10;;;10.48;;
10242;SDS011;5166;48.292;16.418;2022-08-20T07:02:20;10.40;;;9.90;;
10242;SDS011;5166;48.292;16.418;2022-08-20T07:04:23;9.48;;;9.07;;
10242;SDS011;5166;48.292;16.418;2022-08-20T07:06:26;9.18;;;8.77;;
10242;SDS011;5166;48.292;16.418;2022-08-20T07:08:28;15.25;;;14.55;;
10242;SDS011;5166;48.292;16.418;2022-08-20T07:10:32;16.15;;;15.45;;
10242;SDS011;5166;48.292;16.418;2022-08-20T07:12:37;16.53;;;15.63;;
10242;SDS011;5166;48.292;16.418;2022-08-20T07:14:39;16.75;;;15.95;;
10242;SDS011;5166;48.292;16.418;2022-08-20T07:16:43;19.27;;;18.30;;
10242;SDS011;5166;48.292;16.418;2022-08-20T07:18:45;15.68;;;14.88;;
10242;SDS011;5166;48.292;16.418;2022-08-20T07:20:48;17.17;;;16.37;;
10242;SDS011;5166;48.292;16.418;2022-08-20T07:22:51;18.55;;;17.55;;
10242;SDS011;5166;48.292;16.418;2022-08-20T07:24:53;19.58;;;18.48;;
10242;SDS011;5166;48.292;16.418;2022-08-20T07:26:56;14.68;;;13.93;;
10242;SDS011;5166;48.292;16.418;2022-08-20T07:29:00;17.73;;;16.92;;
10242;SDS011;5166;48.292;16.418;2022-08-20T07:31:02;13.43;;;12.82;;
10242;SDS011;5166;48.292;16.418;2022-08-20T07:33:11;11.85;;;11.35;;
10242;SDS011;5166;48.292;16.418;2022-08-20T07:35:15;10.68;;;10.07;;
10242;SDS011;5166;48.292;16.418;2022-08-20T07:37:17;11.27;;;10.68;;
10242;SDS011;5166;48.292;16.418;2022-08-20T07:39:21;12.25;;;11.55;;
10242;SDS011;5166;48.292;16.418;2022-08-20T07:41:23;12.68;;;11.98;;
10242;SDS011;5166;48.292;16.418;2022-08-20T07:43:26;9.88;;;9.18;;
10242;SDS011;5166;48.292;16.418;2022-08-20T07:45:29;18.50;;;17.60;;
10242;SDS011;5166;48.292;16.418;2022-08-20T07:47:32;17.27;;;16.40;;
10242;SDS011;5166;48.292;16.418;2022-08-20T07:49:36;18.92;;;17.92;;
10242;SDS011;5166;48.292;16.418;2022-08-20T07:51:39;15.50;;;14.75;;
10242;SDS011;5166;48.292;16.418;2022-08-20T07:53:42;14.15;;;13.35;;
10242;SDS011;5166;48.292;16.418;2022-08-20T07:55:45;12.00;;;11.30;;
10242;SDS011;5166;48.292;16.418;2022-08-20T07:57:48;11.65;;;10.90;;
10242;SDS011;5166;48.292;16.418;2022-08-20T07:59:51;11.55;;;10.95;;
10242;SDS011;5166;48.292;16.418;2022-08-20T08:01:54;10.60;;;10.10;;
10242;SDS011;5166;48.292;16.418;2022-08-20T08:03:57;12.65;;;12.05;;
10242;SDS011;5166;48.292;16.418;2022-08-20T08:05:59;12.60;;;12.00;;
10242;SDS011;5166;48.292;16.418;2022-08-20T08:08:05;15.18;;;14.48;;
10242;SDS011;5166;48.292;16.418;2022-08-20T08:10:09;13.23;;;12.45;;
10242;SDS011;5166;48.292;16.418;2022-08-20T08:12:12;13.43;;;12.77;;
10242;SDS011;5166;48.292;16.418;2022-08-20T08:14:15;14.40;;;13.60;;
10242;SDS011;5166;48.292;16.418;2022-08-20T08:16:18;14.73;;;14.05;;
10242;SDS011;5166;48.292;16.418;2022-08-20T08:18:21;18.20;;;17.17;;
10242;SDS011;5166;48.292;16.418;2022-08-20T08:20:23;13.75;;;12.85;;
10242;SDS011;5166;48.292;16.418;2022-08-20T08:22:27;13.80;;;13.00;;
10242;SDS011;5166;48.292;16.418;2022-08-20T08:24:30;13.57;;;12.88;;
10242;SDS011;5166;48.292;16.418;2022-08-20T08:26:32;13.43;;;12.82;;
10242;SDS011;5166;48.292;16.418;2022-08-20T08:28:35;11.30;;;10.80;;
10242;SDS011;5166;48.292;16.418;2022-08-20T08:30:38;10.23;;;9.73;;
10242;SDS011;5166;48.292;16.418;2022-08-20T08:32:41;10.53;;;10.03;;
10242;SDS011;5166;48.292;16.418;2022-08-20T08:35:04;9.32;;;8.82;;
10242;SDS011;5166;48.292;16.418;2022-08-20T08:37:06;9.18;;;8.68;;
10242;SDS011;5166;48.292;16.418;2022-08-20T08:39:09;10.15;;;9.65;;
10242;SDS011;5166;48.292;16.418;2022-08-20T08:41:15;13.40;;;12.70;;
10242;SDS011;5166;48.292;16.418;2022-08-20T08:43:17;12.88;;;12.18;;
10242;SDS011;5166;48.292;16.418;2022-08-20T08:45:20;15.70;;;14.75;;
10242;SDS011;5166;48.292;16.418;2022-08-20T08:47:24;16.58;;;15.68;;
10242;SDS011;5166;48.292;16.418;2022-08-20T08:49:27;9.80;;;9.35;;
10242;SDS011;5166;48.292;16.418;2022-08-20T08:51:31;11.60;;;11.07;;
10242;SDS011;5166;48.292;16.418;2022-08-20T08:53:35;11.25;;;10.38;;
10242;SDS011;5166;48.292;16.418;2022-08-20T08:55:38;10.62;;;10.07;;
10242;SDS011;5166;48.292;16.418;2022-08-20T08:57:41;11.43;;;10.75;;
10242;SDS011;5166;48.292;16.418;2022-08-20T08:59:44;9.75;;;9.35;;
10242;SDS011;5166;48.292;16.418;2022-08-20T09:01:47;9.73;;;9.12;;
10242;SDS011;5166;48.292;16.418;2022-08-20T09:03:49;11.18;;;10.57;;
10242;SDS011;5166;48.292;16.418;2022-08-20T09:05:53;11.18;;;10.43;;
10242;SDS011;5166;48.292;16.418;2022-08-20T09:07:59;12.77;;;12.07;;
10242;SDS011;5166;48.292;16.418;2022-08-20T09:10:03;14.88;;;14.18;;
10242;SDS011;5166;48.292;16.418;2022-08-20T09:12:07;15.82;;;15.02;;
10242;SDS011;5166;48.292;16.418;2022-08-20T09:14:09;16.85;;;16.05;;
10242;SDS011;5166;48.292;16.418;2022-08-20T09:16:12;17.20;;;16.30;;
10242;SDS011;5166;48.292;16.418;2022-08-20T09:18:15;12.93;;;12.32;;
10242;SDS011;5166;48.292;16.418;2022-08-20T09:20:18;9.60;;;9.10;;
10242;SDS011;5166;48.292;16.418;2022-08-20T09:22:21;10.05;;;9.55;;
10242;SDS011;5166;48.292;16.418;2022-08-20T09:24:23;10.12;;;9.62;;
10242;SDS011;5166;48.292;16.418;2022-08-20T09:26:26;10.80;;;10.30;;
10242;SDS011;5166;48.292;16.418;2022-08-20T09:28:28;8.55;;;8.05;;
10242;SDS011;5166;48.292;16.418;2022-08-20T09:30:31;11.07;;;10.57;;
10242;SDS011;5166;48.292;16.418;2022-08-20T09:32:34;12.60;;;11.40;;
10242;SDS011;5166;48.292;16.418;2022-08-20T09:34:37;15.73;;;14.75;;
10242;SDS011;5166;48.292;16.418;2022-08-20T09:36:40;13.00;;;12.30;;
10242;SDS011;5166;48.292;16.418;2022-08-20T09:38:42;13.80;;;13.18;;
10242;SDS011;5166;48.292;16.418;2022-08-20T09:40:49;12.50;;;11.90;;
10242;SDS011;5166;48.292;16.418;2022-08-20T09:42:52;11.95;;;11.25;;
10242;SDS011;5166;48.292;16.418;2022-08-20T09:44:55;11.62;;;10.93;;
10242;SDS011;5166;48.292;16.418;2022-08-20T09:46:57;11.43;;;10.77;;
10242;SDS011;5166;48.292;16.418;2022-08-20T09:49:00;13.50;;;12.82;;
10242;SDS011;5166;48.292;16.418;2022-08-20T09:51:03;16.17;;;15.38;;
10242;SDS011;5166;48.292;16.418;2022-08-20T09:53:06;16.42;;;15.62;;
10242;SDS011;5166;48.292;16.418;2022-08-20T09:55:13;16.40;;;15.50;;
10242;SDS011;5166;48.292;16.418;2022-08-20T09:57:16;11.73;;;11.12;;
10242;SDS011;5166;48.292;16.418;2022-08-20T09:59:19;10.40;;;9.90;;
10242;SDS011;5166;48.292;16.418;2022-08-20T10:01:21;14.30;;;13.60;;
10242;SDS011;5166;48.292;16.418;2022-08-20T10:03:24;11.10;;;10.50;;
10242;SDS011;5166;48.292;16.418;2022-08-20T10:05:27;13.93;;;13.23;;
10242;SDS011;5166;48.292;16.418;2022-08-20T10:07:30;12.85;;;12.12;;
10242;SDS011;5166;48.292;16.418;2022-08-20T10:09:33;12.20;;;11.60;;
10242;SDS011;5166;48.292;16.418;2022-08-20T10:11:36;12.12;;;11.50;;
10242;SDS011;5166;48.292;16.418;2022-08-20T10:13:39;12.07;;;11.50;;
10242;SDS011;5166;48.292;16.418;2022-08-20T10:15:41;9.90;;;9.50;;
10242;SDS011;5166;48.292;16.418;2022-08-20T10:17:44;13.77;;;13.07;;
10242;SDS011;5166;48.292;16.418;2022-08-20T10:19:47;12.57;;;11.98;;
10242;SDS011;5166;48.292;16.418;2022-08-20T10:21:50;12.10;;;11.50;;
10242;SDS011;5166;48.292;16.418;2022-08-20T10:23:52;17.70;;;16.50;;
10242;SDS011;5166;48.292;16.418;2022-08-20T10:25:55;15.68;;;14.88;;
10242;SDS011;5166;48.292;16.418;2022-08-20T10:27:58;16.12;;;15.07;;
10242;SDS011;5166;48.292;16.418;2022-08-20T10:30:01;13.60;;;13.00;;
10242;SDS011;5166;48.292;16.418;2022-08-20T10:32:07;16.00;;;15.20;;
10242;SDS011;5166;48.292;16.418;2022-08-20T10:34:10;15.23;;;14.43;;
10242;SDS011;5166;48.292;16.418;2022-08-20T10:36:14;15.57;;;14.68;;
10242;SDS011;5166;48.292;16.418;2022-08-20T10:38:16;12.60;;;12.00;;
10242;SDS011;5166;48.292;16.418;2022-08-20T10:40:19;12.90;;;12.30;;
10242;SDS011;5166;48.292;16.418;2022-08-20T10:42:22;14.07;;;13.38;;
10242;SDS011;5166;48.292;16.418;2022-08-20T10:44:27;11.77;;;11.18;;
10242;SDS011;5166;48.292;16.418;2022-08-20T10:46:31;13.20;;;12.60;;
10242;SDS011;5166;48.292;16.418;2022-08-20T10:48:34;17.45;;;16.55;;
10242;SDS011;5166;48.292;16.418;2022-08-20T10:50:36;17.55;;;16.65;;
10242;SDS011;5166;48.292;16.418;2022-08-20T10:52:39;16.58;;;15.77;;
10242;SDS011;5166;48.292;16.418;2022-08-20T10:54:42;16.23;;;15.25;;
10242;SDS011;5166;48.292;16.418;2022-08-20T10:56:45;12.80;;;12.10;;
10242;SDS011;5166;48.292;16.418;2022-08-20T10:58:48;13.82;;;13.18;;
10242;SDS011;5166;48.292;16.418;2022-08-20T11:00:50;14.43;;;13.60;;
10242;SDS011;5166;48.292;16.418;2022-08-20T11:02:54;15.65;;;14.85;;
10242;SDS011;5166;48.292;16.418;2022-08-20T11:04:57;15.43;;;14.52;;
10242;SDS011;5166;48.292;16.418;2022-08-20T11:07:09;14.75;;;14.05;;
10242;SDS011;5166;48.292;16.418;2022-08-20T11:09:12;17.20;;;16.08;;
10242;SDS011;5166;48.292;16.418;2022-08-20T11:11:15;15.57;;;14.77;;
10242;SDS011;5166;48.292;16.418;2022-08-20T11:13:18;16.70;;;15.85;;
10242;SDS011;5166;48.292;16.418;2022-08-20T11:15:20;15.75;;;14.95;;
10242;SDS011;5166;48.292;16.418;2022-08-20T11:17:24;16.77;;;15.77;;
10242;SDS011;5166;48.292;16.418;2022-08-20T11:19:27;16.33;;;15.32;;
10242;SDS011;5166;48.292;16.418;2022-08-20T11:21:30;17.77;;;16.77;;
10242;SDS011;5166;48.292;16.418;2022-08-20T11:23:34;15.80;;;14.95;;
10242;SDS011;5166;48.292;16.418;2022-08-20T11:25:37;12.00;;;11.18;;
10242;SDS011;5166;48.292;16.418;2022-08-20T11:27:43;13.32;;;12.43;;
10242;SDS011;5166;48.292;16.418;2022-08-20T11:29:43;11.25;;;10.55;;
10242;SDS011;5166;48.292;16.418;2022-08-20T11:31:46;12.90;;;11.95;;
10242;SDS011;5166;48.292;16.418;2022-08-20T11:33:49;13.60;;;12.60;;
10242;SDS011;5166;48.292;16.418;2022-08-20T11:35:52;11.12;;;10.52;;
10242;SDS011;5166;48.292;16.418;2022-08-20T11:37:55;13.68;;;12.88;;
10242;SDS011;5166;48.292;16.418;2022-08-20T11:39:58;13.07;;;12.38;;
10242;SDS011;5166;48.292;16.418;2022-08-20T11:42:01;11.82;;;11.07;;
10242;SDS011;5166;48.292;16.418;2022-08-20T11:44:05;14.05;;;13.05;;
10242;SDS011;5166;48.292;16.418;2022-08-20T11:46:07;12.10;;;11.50;;
10242;SDS011;5166;48.292;16.418;2022-08-20T11:48:11;11.38;;;10.65;;
10242;SDS011;5166;48.292;16.418;2022-08-20T11:50:14;13.65;;;12.90;;
10242;SDS011;5166;48.292;16.418;2022-08-20T11:52:16;14.30;;;13.23;;
10242;SDS011;5166;48.292;16.418;2022-08-20T11:54:19;14.43;;;13.62;;
10242;SDS011;5166;48.292;16.418;2022-08-20T11:56:22;13.95;;;12.98;;
10242;SDS011;5166;48.292;16.418;2022-08-20T11:58:25;12.95;;;12.15;;
10242;SDS011;5166;48.292;16.418;2022-08-20T12:00:28;14.15;;;13.23;;
10242;SDS011;5166;48.292;16.418;2022-08-20T12:02:30;12.15;;;10.38;;